Time;durP1;ratioP1;P1;durP2;ratioP2;P2;SDS_P1;SDS_P2;PMS_P1;PMS_P2;Temp;Humidity;BMP_temperature;BMP_pressure;BME280_temperature;BME280_humidity;BME280_pressure;Samples;Min_cycle;Max_cycle;Signal;HPM_P1;HPM_P2
2022/06/30 00:00:50;;;;;;;12.3;11.3;;;;;;;16.9;89.27734;95058.2;;;;
2022/06/30 00:01:50;;;;;;;12.3;11.3;;;;;;;16.9;89.27734;95058.2;;;;
2022/06/30 00:02:51;;;;;;;12.3;11.3;;;;;;;16.9;89.27734;95058.2;;;;
2022/06/30 00:03:51;;;;;;;12.3;11.3;;;;;;;16.9;89.27734;95058.2;;;;
2022/06/30 00:04:51;;;;;;;12.3;11.3;;;;;;;16.9;89.27734;95058.2;;;;
2022/06/30 00:05:52;;;;;;;12.3;11.3;;;;;;;16.9;89.27734;95058.2;;;;
2022/06/30 00:06:52;;;;;;;12.3;11.3;;;;;;;16.9;89.27734;95058.2;;;;
2022/06/30 00:07:53;;;;;;;12.3;11.3;;;;;;;16.9;89.27734;95058.2;;;;
2022/06/30 00:08:53;;;;;;;12.3;11.3;;;;;;;16.9;89.27734;95058.2;;;;
2022/06/30 00:09:54;;;;;;;12.3;11.3;;;;;;;16.9;89.27734;95058.2;;;;
2022/06/30 00:10:55;;;;;;;12.3;11.2;;;;;;;16.77;89.52051;95053.42;;;;
2022/06/30 00:11:55;;;;;;;12.3;11.2;;;;;;;16.77;89.52051;95053.42;;;;
2022/06/30 00:12:56;;;;;;;12.3;11.2;;;;;;;16.77;89.52051;95053.42;;;;
2022/06/30 00:13:57;;;;;;;12.3;11.2;;;;;;;16.77;89.52051;95053.42;;;;
2022/06/30 00:14:58;;;;;;;12.3;11.2;;;;;;;16.77;89.52051;95053.42;;;;
2022/06/30 00:15:58;;;;;;;12.3;11.2;;;;;;;16.77;89.52051;95053.42;;;;
2022/06/30 00:16:59;;;;;;;12.3;11.2;;;;;;;16.77;89.52051;95053.42;;;;
2022/06/30 00:17:59;;;;;;;12.3;11.2;;;;;;;16.77;89.52051;95053.42;;;;
2022/06/30 00:19:00;;;;;;;12.3;11.2;;;;;;;16.77;89.52051;95053.42;;;;
2022/06/30 00:20:00;;;;;;;12.3;11.2;;;;;;;16.77;89.52051;95053.42;;;;
2022/06/30 00:21:01;;;;;;;13.25;11.95;;;;;;;16.69;89.80957;95063.12;;;;
2022/06/30 00:22:05;;;;;;;13.25;11.95;;;;;;;16.69;89.80957;95063.12;;;;
2022/06/30 00:23:05;;;;;;;13.25;11.95;;;;;;;16.69;89.80957;95063.12;;;;
2022/06/30 00:24:06;;;;;;;13.25;11.95;;;;;;;16.69;89.80957;95063.12;;;;
2022/06/30 00:25:06;;;;;;;13.25;11.95;;;;;;;16.69;89.80957;95063.12;;;;
2022/06/30 00:26:08;;;;;;;13.25;11.95;;;;;;;16.69;89.80957;95063.12;;;;
2022/06/30 00:27:08;;;;;;;13.25;11.95;;;;;;;16.69;89.80957;95063.12;;;;
2022/06/30 00:28:09;;;;;;;13.25;11.95;;;;;;;16.69;89.80957;95063.12;;;;
2022/06/30 00:29:11;;;;;;;13.25;11.95;;;;;;;16.69;89.80957;95063.12;;;;
2022/06/30 00:30:11;;;;;;;13.25;11.95;;;;;;;16.69;89.80957;95063.12;;;;
2022/06/30 00:31:12;;;;;;;13.25;11.95;;;;;;;16.69;89.80957;95063.12;;;;
2022/06/30 00:32:13;;;;;;;13.1;11.3;;;;;;;16.62;90.06641;95047.43;;;;
2022/06/30 00:33:14;;;;;;;13.1;11.3;;;;;;;16.62;90.06641;95047.43;;;;
2022/06/30 00:34:14;;;;;;;13.1;11.3;;;;;;;16.62;90.06641;95047.43;;;;
2022/06/30 00:35:15;;;;;;;13.1;11.3;;;;;;;16.62;90.06641;95047.43;;;;
2022/06/30 00:36:15;;;;;;;13.1;11.3;;;;;;;16.62;90.06641;95047.43;;;;
2022/06/30 00:37:16;;;;;;;13.1;11.3;;;;;;;16.62;90.06641;95047.43;;;;
2022/06/30 00:38:16;;;;;;;13.1;11.3;;;;;;;16.62;90.06641;95047.43;;;;
2022/06/30 00:39:17;;;;;;;13.1;11.3;;;;;;;16.62;90.06641;95047.43;;;;
2022/06/30 00:40:17;;;;;;;13.1;11.3;;;;;;;16.62;90.06641;95047.43;;;;
2022/06/30 00:41:18;;;;;;;13.1;11.3;;;;;;;16.62;90.06641;95047.43;;;;
2022/06/30 00:42:18;;;;;;;12.2;11.1;;;;;;;16.63;90.36133;95037.56;;;;
2022/06/30 00:43:19;;;;;;;12.2;11.1;;;;;;;16.63;90.36133;95037.56;;;;
2022/06/30 00:44:20;;;;;;;12.2;11.1;;;;;;;16.63;90.36133;95037.56;;;;
2022/06/30 00:45:21;;;;;;;12.2;11.1;;;;;;;16.63;90.36133;95037.56;;;;
2022/06/30 00:46:22;;;;;;;12.2;11.1;;;;;;;16.63;90.36133;95037.56;;;;
2022/06/30 00:47:22;;;;;;;12.2;11.1;;;;;;;16.63;90.36133;95037.56;;;;
2022/06/30 00:48:23;;;;;;;12.2;11.1;;;;;;;16.63;90.36133;95037.56;;;;
2022/06/30 00:49:23;;;;;;;12.2;11.1;;;;;;;16.63;90.36133;95037.56;;;;
2022/06/30 00:50:25;;;;;;;12.2;11.1;;;;;;;16.63;90.36133;95037.56;;;;
2022/06/30 00:51:26;;;;;;;12.2;11.1;;;;;;;16.63;90.36133;95037.56;;;;
2022/06/30 00:52:26;;;;;;;12.2;11.1;;;;;;;16.63;90.36133;95037.56;;;;
2022/06/30 00:53:29;;;;;;;12;10.85;;;;;;;16.58;90.4707;95019.1;;;;
2022/06/30 00:54:32;;;;;;;12;10.85;;;;;;;16.58;90.4707;95019.1;;;;
2022/06/30 00:55:33;;;;;;;12;10.85;;;;;;;16.58;90.4707;95019.1;;;;
2022/06/30 00:56:35;;;;;;;12;10.85;;;;;;;16.58;90.4707;95019.1;;;;
2022/06/30 00:57:40;;;;;;;12;10.85;;;;;;;16.58;90.4707;95019.1;;;;
2022/06/30 00:58:41;;;;;;;12;10.85;;;;;;;16.58;90.4707;95019.1;;;;
2022/06/30 00:59:43;;;;;;;12;10.85;;;;;;;16.58;90.4707;95019.1;;;;
2022/06/30 01:00:45;;;;;;;12;10.85;;;;;;;16.58;90.4707;95019.1;;;;
2022/06/30 01:01:47;;;;;;;12;10.85;;;;;;;16.58;90.4707;95019.1;;;;
2022/06/30 01:02:49;;;;;;;12;10.85;;;;;;;16.58;90.4707;95019.1;;;;
2022/06/30 01:03:50;;;;;;;12;10.95;;;;;;;16.54;90.59375;95024.28;;;;
2022/06/30 01:04:51;;;;;;;12;10.95;;;;;;;16.54;90.59375;95024.28;;;;
2022/06/30 01:05:53;;;;;;;12;10.95;;;;;;;16.54;90.59375;95024.28;;;;
2022/06/30 01:06:53;;;;;;;12;10.95;;;;;;;16.54;90.59375;95024.28;;;;
2022/06/30 01:07:55;;;;;;;12;10.95;;;;;;;16.54;90.59375;95024.28;;;;
2022/06/30 01:08:56;;;;;;;12;10.95;;;;;;;16.54;90.59375;95024.28;;;;
2022/06/30 01:15:02;;;;;;;12.1;11;;;;;;;16.41;90.65234;95015.86;;;;
2022/06/30 01:16:03;;;;;;;12.1;11;;;;;;;16.41;90.65234;95015.86;;;;
2022/06/30 01:17:04;;;;;;;12.1;11;;;;;;;16.41;90.65234;95015.86;;;;
2022/06/30 01:18:05;;;;;;;12.1;11;;;;;;;16.41;90.65234;95015.86;;;;
2022/06/30 01:19:05;;;;;;;12.1;11;;;;;;;16.41;90.65234;95015.86;;;;
2022/06/30 01:20:06;;;;;;;12.1;11;;;;;;;16.41;90.65234;95015.86;;;;
2022/06/30 01:21:09;;;;;;;12.1;11;;;;;;;16.41;90.65234;95015.86;;;;
2022/06/30 01:22:09;;;;;;;12.1;11;;;;;;;16.41;90.65234;95015.86;;;;
2022/06/30 01:23:10;;;;;;;12.1;11;;;;;;;16.41;90.65234;95015.86;;;;
2022/06/30 01:24:10;;;;;;;12.1;11;;;;;;;16.41;90.65234;95015.86;;;;
2022/06/30 01:25:10;;;;;;;12.55;11.35;;;;;;;16.33;90.88574;95010.06;;;;
2022/06/30 01:26:11;;;;;;;12.55;11.35;;;;;;;16.33;90.88574;95010.06;;;;
2022/06/30 01:27:12;;;;;;;12.55;11.35;;;;;;;16.33;90.88574;95010.06;;;;
2022/06/30 01:28:12;;;;;;;12.55;11.35;;;;;;;16.33;90.88574;95010.06;;;;
2022/06/30 01:29:13;;;;;;;12.55;11.35;;;;;;;16.33;90.88574;95010.06;;;;
2022/06/30 01:30:13;;;;;;;12.55;11.35;;;;;;;16.33;90.88574;95010.06;;;;
2022/06/30 01:31:14;;;;;;;12.55;11.35;;;;;;;16.33;90.88574;95010.06;;;;
2022/06/30 01:32:14;;;;;;;12.55;11.35;;;;;;;16.33;90.88574;95010.06;;;;
2022/06/30 01:33:15;;;;;;;12.55;11.35;;;;;;;16.33;90.88574;95010.06;;;;
2022/06/30 01:34:15;;;;;;;12.55;11.35;;;;;;;16.33;90.88574;95010.06;;;;
2022/06/30 01:35:16;;;;;;;12.55;11.35;;;;;;;16.33;90.88574;95010.06;;;;
2022/06/30 01:36:17;;;;;;;12.3;11.2;;;;;;;16.26;91.11133;95009.45;;;;
2022/06/30 01:37:18;;;;;;;12.3;11.2;;;;;;;16.26;91.11133;95009.45;;;;
2022/06/30 01:38:19;;;;;;;12.3;11.2;;;;;;;16.26;91.11133;95009.45;;;;
2022/06/30 01:39:20;;;;;;;12.3;11.2;;;;;;;16.26;91.11133;95009.45;;;;
2022/06/30 01:40:21;;;;;;;12.3;11.2;;;;;;;16.26;91.11133;95009.45;;;;
2022/06/30 01:41:23;;;;;;;12.3;11.2;;;;;;;16.26;91.11133;95009.45;;;;
2022/06/30 01:42:23;;;;;;;12.3;11.2;;;;;;;16.26;91.11133;95009.45;;;;
2022/06/30 01:43:24;;;;;;;12.3;11.2;;;;;;;16.26;91.11133;95009.45;;;;
2022/06/30 01:44:24;;;;;;;12.3;11.2;;;;;;;16.26;91.11133;95009.45;;;;
2022/06/30 01:45:25;;;;;;;12.3;11.2;;;;;;;16.26;91.11133;95009.45;;;;
2022/06/30 01:46:26;;;;;;;12.55;11.55;;;;;;;16.24;91.25977;95015.59;;;;
2022/06/30 01:47:27;;;;;;;12.55;11.55;;;;;;;16.24;91.25977;95015.59;;;;
2022/06/30 01:48:27;;;;;;;12.55;11.55;;;;;;;16.24;91.25977;95015.59;;;;
2022/06/30 01:49:27;;;;;;;12.55;11.55;;;;;;;16.24;91.25977;95015.59;;;;
2022/06/30 01:50:28;;;;;;;12.55;11.55;;;;;;;16.24;91.25977;95015.59;;;;
2022/06/30 01:51:30;;;;;;;12.55;11.55;;;;;;;16.24;91.25977;95015.59;;;;
2022/06/30 01:52:31;;;;;;;12.55;11.55;;;;;;;16.24;91.25977;95015.59;;;;
2022/06/30 01:53:31;;;;;;;12.55;11.55;;;;;;;16.24;91.25977;95015.59;;;;
2022/06/30 01:54:32;;;;;;;12.55;11.55;;;;;;;16.24;91.25977;95015.59;;;;
2022/06/30 01:55:32;;;;;;;12.55;11.55;;;;;;;16.24;91.25977;95015.59;;;;
2022/06/30 01:56:33;;;;;;;12.55;11.55;;;;;;;16.24;91.25977;95015.59;;;;
2022/06/30 01:57:33;;;;;;;12.6;11.5;;;;;;;16.18;91.42969;95012.58;;;;
2022/06/30 01:58:35;;;;;;;12.6;11.5;;;;;;;16.18;91.42969;95012.58;;;;
2022/06/30 01:59:35;;;;;;;12.6;11.5;;;;;;;16.18;91.42969;95012.58;;;;
2022/06/30 02:00:36;;;;;;;12.6;11.5;;;;;;;16.18;91.42969;95012.58;;;;
2022/06/30 02:01:36;;;;;;;12.6;11.5;;;;;;;16.18;91.42969;95012.58;;;;
2022/06/30 02:02:37;;;;;;;12.6;11.5;;;;;;;16.18;91.42969;95012.58;;;;
2022/06/30 02:03:39;;;;;;;12.6;11.5;;;;;;;16.18;91.42969;95012.58;;;;
2022/06/30 02:04:47;;;;;;;12.6;11.5;;;;;;;16.18;91.42969;95012.58;;;;
2022/06/30 02:05:47;;;;;;;12.6;11.5;;;;;;;16.18;91.42969;95012.58;;;;
2022/06/30 02:06:48;;;;;;;12.6;11.5;;;;;;;16.18;91.42969;95012.58;;;;
2022/06/30 02:07:48;;;;;;;12.35;11.2;;;;;;;16.24;91.73633;95020.37;;;;
2022/06/30 02:08:49;;;;;;;12.35;11.2;;;;;;;16.24;91.73633;95020.37;;;;
2022/06/30 02:09:51;;;;;;;12.35;11.2;;;;;;;16.24;91.73633;95020.37;;;;
2022/06/30 02:10:51;;;;;;;12.35;11.2;;;;;;;16.24;91.73633;95020.37;;;;
2022/06/30 02:12:44;;;;;;;12.35;11.2;;;;;;;16.24;91.73633;95020.37;;;;
2022/06/30 02:13:46;;;;;;;12.35;11.2;;;;;;;16.24;91.73633;95020.37;;;;
2022/06/30 02:14:46;;;;;;;12.35;11.2;;;;;;;16.24;91.73633;95020.37;;;;
2022/06/30 02:15:47;;;;;;;12.35;11.2;;;;;;;16.24;91.73633;95020.37;;;;
2022/06/30 02:16:47;;;;;;;12.35;11.2;;;;;;;16.24;91.73633;95020.37;;;;
2022/06/30 02:17:48;;;;;;;12.35;11.2;;;;;;;16.24;91.73633;95020.37;;;;
2022/06/30 02:18:50;;;;;;;12.4;11.3;;;;;;;16.22;91.74316;95031.86;;;;
2022/06/30 02:19:51;;;;;;;12.4;11.3;;;;;;;16.22;91.74316;95031.86;;;;
2022/06/30 02:20:52;;;;;;;12.4;11.3;;;;;;;16.22;91.74316;95031.86;;;;
2022/06/30 02:21:52;;;;;;;12.4;11.3;;;;;;;16.22;91.74316;95031.86;;;;
2022/06/30 02:22:53;;;;;;;12.4;11.3;;;;;;;16.22;91.74316;95031.86;;;;
2022/06/30 02:23:55;;;;;;;12.4;11.3;;;;;;;16.22;91.74316;95031.86;;;;
2022/06/30 02:24:55;;;;;;;12.4;11.3;;;;;;;16.22;91.74316;95031.86;;;;
2022/06/30 02:25:56;;;;;;;12.4;11.3;;;;;;;16.22;91.74316;95031.86;;;;
2022/06/30 02:26:56;;;;;;;12.4;11.3;;;;;;;16.22;91.74316;95031.86;;;;
2022/06/30 02:27:57;;;;;;;12.4;11.3;;;;;;;16.22;91.74316;95031.86;;;;
2022/06/30 02:28:58;;;;;;;11.95;10.85;;;;;;;16.22;91.83887;95032.37;;;;
2022/06/30 02:29:58;;;;;;;11.95;10.85;;;;;;;16.22;91.83887;95032.37;;;;
2022/06/30 02:30:59;;;;;;;11.95;10.85;;;;;;;16.22;91.83887;95032.37;;;;
2022/06/30 02:32:00;;;;;;;11.95;10.85;;;;;;;16.22;91.83887;95032.37;;;;
2022/06/30 02:33:00;;;;;;;11.95;10.85;;;;;;;16.22;91.83887;95032.37;;;;
2022/06/30 02:34:01;;;;;;;11.95;10.85;;;;;;;16.22;91.83887;95032.37;;;;
2022/06/30 02:35:02;;;;;;;11.95;10.85;;;;;;;16.22;91.83887;95032.37;;;;
2022/06/30 02:36:03;;;;;;;11.95;10.85;;;;;;;16.22;91.83887;95032.37;;;;
2022/06/30 02:37:05;;;;;;;11.95;10.85;;;;;;;16.22;91.83887;95032.37;;;;
2022/06/30 02:38:05;;;;;;;11.95;10.85;;;;;;;16.22;91.83887;95032.37;;;;
2022/06/30 02:39:09;;;;;;;11.95;10.85;;;;;;;16.22;91.83887;95032.37;;;;
2022/06/30 02:40:10;;;;;;;11.75;10.65;;;;;;;16.17;91.9707;95034.99;;;;
2022/06/30 02:41:11;;;;;;;11.75;10.65;;;;;;;16.17;91.9707;95034.99;;;;
2022/06/30 02:42:12;;;;;;;11.75;10.65;;;;;;;16.17;91.9707;95034.99;;;;
2022/06/30 02:43:12;;;;;;;11.75;10.65;;;;;;;16.17;91.9707;95034.99;;;;
2022/06/30 02:44:12;;;;;;;11.75;10.65;;;;;;;16.17;91.9707;95034.99;;;;
2022/06/30 02:45:13;;;;;;;11.75;10.65;;;;;;;16.17;91.9707;95034.99;;;;
2022/06/30 02:46:14;;;;;;;11.75;10.65;;;;;;;16.17;91.9707;95034.99;;;;
2022/06/30 02:47:15;;;;;;;11.75;10.65;;;;;;;16.17;91.9707;95034.99;;;;
2022/06/30 02:48:16;;;;;;;11.75;10.65;;;;;;;16.17;91.9707;95034.99;;;;
2022/06/30 02:49:17;;;;;;;11.75;10.65;;;;;;;16.17;91.9707;95034.99;;;;
2022/06/30 02:50:18;;;;;;;11.15;10.25;;;;;;;16.19;92.16016;95046.22;;;;
2022/06/30 02:51:18;;;;;;;11.15;10.25;;;;;;;16.19;92.16016;95046.22;;;;
2022/06/30 02:52:19;;;;;;;11.15;10.25;;;;;;;16.19;92.16016;95046.22;;;;
2022/06/30 02:53:19;;;;;;;11.15;10.25;;;;;;;16.19;92.16016;95046.22;;;;
2022/06/30 02:54:19;;;;;;;11.15;10.25;;;;;;;16.19;92.16016;95046.22;;;;
2022/06/30 02:55:21;;;;;;;11.15;10.25;;;;;;;16.19;92.16016;95046.22;;;;
2022/06/30 02:56:21;;;;;;;11.15;10.25;;;;;;;16.19;92.16016;95046.22;;;;
2022/06/30 02:57:22;;;;;;;11.15;10.25;;;;;;;16.19;92.16016;95046.22;;;;
2022/06/30 02:58:23;;;;;;;11.15;10.25;;;;;;;16.19;92.16016;95046.22;;;;
2022/06/30 02:59:23;;;;;;;11.15;10.25;;;;;;;16.19;92.16016;95046.22;;;;
2022/06/30 03:00:24;;;;;;;11.15;10.25;;;;;;;16.19;92.16016;95046.22;;;;
2022/06/30 03:01:24;;;;;;;11.45;10.35;;;;;;;16.12;92.14453;95051.34;;;;
2022/06/30 03:02:25;;;;;;;11.45;10.35;;;;;;;16.12;92.14453;95051.34;;;;
2022/06/30 03:03:25;;;;;;;11.45;10.35;;;;;;;16.12;92.14453;95051.34;;;;
2022/06/30 03:04:26;;;;;;;11.45;10.35;;;;;;;16.12;92.14453;95051.34;;;;
2022/06/30 03:05:26;;;;;;;11.45;10.35;;;;;;;16.12;92.14453;95051.34;;;;
2022/06/30 03:06:28;;;;;;;11.45;10.35;;;;;;;16.12;92.14453;95051.34;;;;
2022/06/30 03:07:30;;;;;;;11.45;10.35;;;;;;;16.12;92.14453;95051.34;;;;
2022/06/30 03:08:31;;;;;;;11.45;10.35;;;;;;;16.12;92.14453;95051.34;;;;
2022/06/30 03:09:31;;;;;;;11.45;10.35;;;;;;;16.12;92.14453;95051.34;;;;
2022/06/30 03:10:32;;;;;;;11.45;10.35;;;;;;;16.12;92.14453;95051.34;;;;
2022/06/30 03:11:33;;;;;;;11.45;10.35;;;;;;;16.12;92.14453;95051.34;;;;
2022/06/30 03:12:33;;;;;;;11.95;10.85;;;;;;;16.07;92.18945;95041.55;;;;
2022/06/30 03:13:34;;;;;;;11.95;10.85;;;;;;;16.07;92.18945;95041.55;;;;
2022/06/30 03:14:34;;;;;;;11.95;10.85;;;;;;;16.07;92.18945;95041.55;;;;
2022/06/30 03:15:35;;;;;;;11.95;10.85;;;;;;;16.07;92.18945;95041.55;;;;
2022/06/30 03:16:35;;;;;;;11.95;10.85;;;;;;;16.07;92.18945;95041.55;;;;
2022/06/30 03:17:36;;;;;;;11.95;10.85;;;;;;;16.07;92.18945;95041.55;;;;
2022/06/30 03:18:36;;;;;;;11.95;10.85;;;;;;;16.07;92.18945;95041.55;;;;
2022/06/30 03:19:37;;;;;;;11.95;10.85;;;;;;;16.07;92.18945;95041.55;;;;
2022/06/30 03:20:37;;;;;;;11.95;10.85;;;;;;;16.07;92.18945;95041.55;;;;
2022/06/30 03:21:37;;;;;;;11.95;10.85;;;;;;;16.07;92.18945;95041.55;;;;
2022/06/30 03:22:38;;;;;;;11.7;10.65;;;;;;;15.89;92.13086;95042.3;;;;
2022/06/30 03:23:38;;;;;;;11.7;10.65;;;;;;;15.89;92.13086;95042.3;;;;
2022/06/30 03:24:39;;;;;;;11.7;10.65;;;;;;;15.89;92.13086;95042.3;;;;
2022/06/30 03:25:40;;;;;;;11.7;10.65;;;;;;;15.89;92.13086;95042.3;;;;
2022/06/30 03:26:41;;;;;;;11.7;10.65;;;;;;;15.89;92.13086;95042.3;;;;
2022/06/30 03:27:41;;;;;;;11.7;10.65;;;;;;;15.89;92.13086;95042.3;;;;
2022/06/30 03:28:42;;;;;;;11.7;10.65;;;;;;;15.89;92.13086;95042.3;;;;
2022/06/30 03:29:42;;;;;;;11.7;10.65;;;;;;;15.89;92.13086;95042.3;;;;
2022/06/30 03:30:45;;;;;;;11.7;10.65;;;;;;;15.89;92.13086;95042.3;;;;
2022/06/30 03:31:46;;;;;;;11.7;10.65;;;;;;;15.89;92.13086;95042.3;;;;
2022/06/30 03:32:46;;;;;;;11.7;10.65;;;;;;;15.89;92.13086;95042.3;;;;
2022/06/30 03:33:47;;;;;;;11.45;10.35;;;;;;;15.81;92.375;95048.89;;;;
2022/06/30 03:34:48;;;;;;;11.45;10.35;;;;;;;15.81;92.375;95048.89;;;;
2022/06/30 03:35:48;;;;;;;11.45;10.35;;;;;;;15.81;92.375;95048.89;;;;
2022/06/30 03:36:49;;;;;;;11.45;10.35;;;;;;;15.81;92.375;95048.89;;;;
2022/06/30 03:37:49;;;;;;;11.45;10.35;;;;;;;15.81;92.375;95048.89;;;;
2022/06/30 03:38:50;;;;;;;11.45;10.35;;;;;;;15.81;92.375;95048.89;;;;
2022/06/30 03:39:51;;;;;;;11.45;10.35;;;;;;;15.81;92.375;95048.89;;;;
2022/06/30 03:40:51;;;;;;;11.45;10.35;;;;;;;15.81;92.375;95048.89;;;;
2022/06/30 03:41:51;;;;;;;11.45;10.35;;;;;;;15.81;92.375;95048.89;;;;
2022/06/30 03:42:52;;;;;;;11.45;10.35;;;;;;;15.81;92.375;95048.89;;;;
2022/06/30 03:43:53;;;;;;;12.55;11.45;;;;;;;15.73;92.44238;95051.59;;;;
2022/06/30 03:44:54;;;;;;;12.55;11.45;;;;;;;15.73;92.44238;95051.59;;;;
2022/06/30 03:45:54;;;;;;;12.55;11.45;;;;;;;15.73;92.44238;95051.59;;;;
2022/06/30 03:46:56;;;;;;;12.55;11.45;;;;;;;15.73;92.44238;95051.59;;;;
2022/06/30 03:47:57;;;;;;;12.55;11.45;;;;;;;15.73;92.44238;95051.59;;;;
2022/06/30 03:49:00;;;;;;;12.55;11.45;;;;;;;15.73;92.44238;95051.59;;;;
2022/06/30 03:50:00;;;;;;;12.55;11.45;;;;;;;15.73;92.44238;95051.59;;;;
2022/06/30 03:51:01;;;;;;;12.55;11.45;;;;;;;15.73;92.44238;95051.59;;;;
2022/06/30 03:52:02;;;;;;;12.55;11.45;;;;;;;15.73;92.44238;95051.59;;;;
2022/06/30 03:53:03;;;;;;;12.55;11.45;;;;;;;15.73;92.44238;95051.59;;;;
2022/06/30 03:54:04;;;;;;;12.55;11.45;;;;;;;15.73;92.44238;95051.59;;;;
2022/06/30 03:55:04;;;;;;;12.55;11.45;;;;;;;15.73;92.44238;95051.59;;;;
2022/06/30 03:56:06;;;;;;;12.55;11.45;;;;;;;15.73;92.44238;95051.59;;;;
2022/06/30 03:57:06;;;;;;;12.55;11.45;;;;;;;15.73;92.44238;95051.59;;;;
2022/06/30 03:58:07;;;;;;;12.55;11.45;;;;;;;15.73;92.44238;95051.59;;;;
2022/06/30 03:59:08;;;;;;;12.55;11.45;;;;;;;15.73;92.44238;95051.59;;;;
2022/06/30 04:00:08;;;;;;;12.55;11.45;;;;;;;15.73;92.44238;95051.59;;;;
2022/06/30 04:01:09;;;;;;;12.55;11.45;;;;;;;15.73;92.44238;95051.59;;;;
2022/06/30 04:02:10;;;;;;;12.55;11.45;;;;;;;15.73;92.44238;95051.59;;;;
2022/06/30 04:03:10;;;;;;;12.55;11.45;;;;;;;15.73;92.44238;95051.59;;;;
2022/06/30 04:04:11;;;;;;;12.55;11.45;;;;;;;15.73;92.44238;95051.59;;;;
2022/06/30 04:05:12;;;;;;;12.05;10.95;;;;;;;15.81;92.71973;95059.66;;;;
2022/06/30 04:06:12;;;;;;;12.05;10.95;;;;;;;15.81;92.71973;95059.66;;;;
2022/06/30 04:07:13;;;;;;;12.05;10.95;;;;;;;15.81;92.71973;95059.66;;;;
2022/06/30 04:08:13;;;;;;;12.05;10.95;;;;;;;15.81;92.71973;95059.66;;;;
2022/06/30 04:09:14;;;;;;;12.05;10.95;;;;;;;15.81;92.71973;95059.66;;;;
2022/06/30 04:10:14;;;;;;;12.05;10.95;;;;;;;15.81;92.71973;95059.66;;;;
2022/06/30 04:11:15;;;;;;;12.05;10.95;;;;;;;15.81;92.71973;95059.66;;;;
2022/06/30 04:12:16;;;;;;;12.05;10.95;;;;;;;15.81;92.71973;95059.66;;;;
2022/06/30 04:13:16;;;;;;;12.05;10.95;;;;;;;15.81;92.71973;95059.66;;;;
2022/06/30 04:14:17;;;;;;;12.05;10.95;;;;;;;15.81;92.71973;95059.66;;;;
2022/06/30 04:15:17;;;;;;;12.05;10.95;;;;;;;15.81;92.71973;95059.66;;;;
2022/06/30 04:16:18;;;;;;;11.6;10.5;;;;;;;15.98;92.87402;95057.73;;;;
2022/06/30 04:17:18;;;;;;;11.6;10.5;;;;;;;15.98;92.87402;95057.73;;;;
2022/06/30 04:18:19;;;;;;;11.6;10.5;;;;;;;15.98;92.87402;95057.73;;;;
2022/06/30 04:19:19;;;;;;;11.6;10.5;;;;;;;15.98;92.87402;95057.73;;;;
2022/06/30 04:20:20;;;;;;;11.6;10.5;;;;;;;15.98;92.87402;95057.73;;;;
2022/06/30 04:21:20;;;;;;;11.6;10.5;;;;;;;15.98;92.87402;95057.73;;;;
2022/06/30 04:22:21;;;;;;;11.6;10.5;;;;;;;15.98;92.87402;95057.73;;;;
2022/06/30 04:23:21;;;;;;;11.6;10.5;;;;;;;15.98;92.87402;95057.73;;;;
2022/06/30 04:24:22;;;;;;;11.6;10.5;;;;;;;15.98;92.87402;95057.73;;;;
2022/06/30 04:25:22;;;;;;;11.6;10.5;;;;;;;15.98;92.87402;95057.73;;;;
2022/06/30 04:26:23;;;;;;;11.5;10.6;;;;;;;16.07;92.73145;95058.88;;;;
2022/06/30 04:27:24;;;;;;;11.5;10.6;;;;;;;16.07;92.73145;95058.88;;;;
2022/06/30 04:28:24;;;;;;;11.5;10.6;;;;;;;16.07;92.73145;95058.88;;;;
2022/06/30 04:29:25;;;;;;;11.5;10.6;;;;;;;16.07;92.73145;95058.88;;;;
2022/06/30 04:35:38;;;;;;;11.5;10.6;;;;;;;16.07;92.73145;95058.88;;;;
2022/06/30 04:36:38;;;;;;;11.5;10.6;;;;;;;16.07;92.73145;95058.88;;;;
2022/06/30 04:37:39;;;;;;;10.75;9.750001;;;;;;;16.28;92.83008;95059.77;;;;
2022/06/30 04:38:39;;;;;;;10.75;9.750001;;;;;;;16.28;92.83008;95059.77;;;;
2022/06/30 04:39:40;;;;;;;10.75;9.750001;;;;;;;16.28;92.83008;95059.77;;;;
2022/06/30 04:41:45;;;;;;;10.75;9.750001;;;;;;;16.28;92.83008;95059.77;;;;
2022/06/30 04:42:46;;;;;;;10.75;9.750001;;;;;;;16.28;92.83008;95059.77;;;;
2022/06/30 04:43:46;;;;;;;10.75;9.750001;;;;;;;16.28;92.83008;95059.77;;;;
2022/06/30 04:44:47;;;;;;;10.75;9.750001;;;;;;;16.28;92.83008;95059.77;;;;
2022/06/30 04:45:47;;;;;;;10.75;9.750001;;;;;;;16.28;92.83008;95059.77;;;;
2022/06/30 04:46:48;;;;;;;10.75;9.750001;;;;;;;16.28;92.83008;95059.77;;;;
2022/06/30 04:47:48;;;;;;;10.1;9.199999;;;;;;;16.48;92.69824;95064;;;;
2022/06/30 04:48:48;;;;;;;10.1;9.199999;;;;;;;16.48;92.69824;95064;;;;
2022/06/30 04:49:49;;;;;;;10.1;9.199999;;;;;;;16.48;92.69824;95064;;;;
2022/06/30 04:50:50;;;;;;;10.1;9.199999;;;;;;;16.48;92.69824;95064;;;;
2022/06/30 04:51:50;;;;;;;10.1;9.199999;;;;;;;16.48;92.69824;95064;;;;
2022/06/30 04:52:51;;;;;;;10.1;9.199999;;;;;;;16.48;92.69824;95064;;;;
2022/06/30 04:53:51;;;;;;;10.1;9.199999;;;;;;;16.48;92.69824;95064;;;;
2022/06/30 04:54:53;;;;;;;10.1;9.199999;;;;;;;16.48;92.69824;95064;;;;
2022/06/30 04:55:53;;;;;;;10.1;9.199999;;;;;;;16.48;92.69824;95064;;;;
2022/06/30 04:56:54;;;;;;;10.1;9.199999;;;;;;;16.48;92.69824;95064;;;;
2022/06/30 04:57:54;;;;;;;10.1;9.199999;;;;;;;16.48;92.69824;95064;;;;
2022/06/30 04:58:54;;;;;;;9.1;8.3;;;;;;;16.84;92.6748;95061.1;;;;
2022/06/30 04:59:55;;;;;;;9.1;8.3;;;;;;;16.84;92.6748;95061.1;;;;
2022/06/30 05:00:56;;;;;;;9.1;8.3;;;;;;;16.84;92.6748;95061.1;;;;
2022/06/30 05:01:56;;;;;;;9.1;8.3;;;;;;;16.84;92.6748;95061.1;;;;
2022/06/30 05:02:56;;;;;;;9.1;8.3;;;;;;;16.84;92.6748;95061.1;;;;
2022/06/30 05:03:57;;;;;;;9.1;8.3;;;;;;;16.84;92.6748;95061.1;;;;
2022/06/30 05:04:58;;;;;;;9.1;8.3;;;;;;;16.84;92.6748;95061.1;;;;
2022/06/30 05:05:58;;;;;;;9.1;8.3;;;;;;;16.84;92.6748;95061.1;;;;
2022/06/30 05:06:59;;;;;;;9.1;8.3;;;;;;;16.84;92.6748;95061.1;;;;
2022/06/30 05:08:00;;;;;;;9.1;8.3;;;;;;;16.84;92.6748;95061.1;;;;
2022/06/30 05:09:00;;;;;;;9.1;8.3;;;;;;;16.84;92.6748;95061.1;;;;
2022/06/30 05:10:01;;;;;;;9.799999;7.900001;;;;;;;17.21;92.34863;95051.2;;;;
2022/06/30 05:11:01;;;;;;;9.799999;7.900001;;;;;;;17.21;92.34863;95051.2;;;;
2022/06/30 05:12:02;;;;;;;9.799999;7.900001;;;;;;;17.21;92.34863;95051.2;;;;
2022/06/30 05:13:07;;;;;;;9.799999;7.900001;;;;;;;17.21;92.34863;95051.2;;;;
2022/06/30 05:14:07;;;;;;;9.799999;7.900001;;;;;;;17.21;92.34863;95051.2;;;;
2022/06/30 05:15:08;;;;;;;9.799999;7.900001;;;;;;;17.21;92.34863;95051.2;;;;
2022/06/30 05:16:09;;;;;;;9.799999;7.900001;;;;;;;17.21;92.34863;95051.2;;;;
2022/06/30 05:17:10;;;;;;;9.799999;7.900001;;;;;;;17.21;92.34863;95051.2;;;;
2022/06/30 05:18:10;;;;;;;9.799999;7.900001;;;;;;;17.21;92.34863;95051.2;;;;
2022/06/30 05:19:11;;;;;;;9.799999;7.900001;;;;;;;17.21;92.34863;95051.2;;;;
2022/06/30 05:20:11;;;;;;;8.7;6.95;;;;;;;17.67;92.2373;95037.56;;;;
2022/06/30 05:21:12;;;;;;;8.7;6.95;;;;;;;17.67;92.2373;95037.56;;;;
2022/06/30 05:22:12;;;;;;;8.7;6.95;;;;;;;17.67;92.2373;95037.56;;;;
2022/06/30 05:23:13;;;;;;;8.7;6.95;;;;;;;17.67;92.2373;95037.56;;;;
2022/06/30 05:29:24;;;;;;;8.7;6.95;;;;;;;17.67;92.2373;95037.56;;;;
2022/06/30 05:30:24;;;;;;;8.7;6.95;;;;;;;17.67;92.2373;95037.56;;;;
2022/06/30 05:31:25;;;;;;;8;6.35;;;;;;;18.09;91.73535;95033.81;;;;
2022/06/30 05:32:25;;;;;;;8;6.35;;;;;;;18.09;91.73535;95033.81;;;;
2022/06/30 05:33:26;;;;;;;8;6.35;;;;;;;18.09;91.73535;95033.81;;;;
2022/06/30 05:34:26;;;;;;;8;6.35;;;;;;;18.09;91.73535;95033.81;;;;
2022/06/30 05:35:27;;;;;;;8;6.35;;;;;;;18.09;91.73535;95033.81;;;;
2022/06/30 05:36:27;;;;;;;8;6.35;;;;;;;18.09;91.73535;95033.81;;;;
2022/06/30 05:37:28;;;;;;;8;6.35;;;;;;;18.09;91.73535;95033.81;;;;
2022/06/30 05:38:28;;;;;;;8;6.35;;;;;;;18.09;91.73535;95033.81;;;;
2022/06/30 05:39:29;;;;;;;8;6.35;;;;;;;18.09;91.73535;95033.81;;;;
2022/06/30 05:40:29;;;;;;;8;6.35;;;;;;;18.09;91.73535;95033.81;;;;
2022/06/30 05:41:30;;;;;;;7.05;6.3;;;;;;;18.51;91.49609;95031.76;;;;
2022/06/30 05:42:30;;;;;;;7.05;6.3;;;;;;;18.51;91.49609;95031.76;;;;
2022/06/30 05:43:31;;;;;;;7.05;6.3;;;;;;;18.51;91.49609;95031.76;;;;
2022/06/30 05:44:32;;;;;;;7.05;6.3;;;;;;;18.51;91.49609;95031.76;;;;
2022/06/30 05:45:33;;;;;;;7.05;6.3;;;;;;;18.51;91.49609;95031.76;;;;
2022/06/30 05:46:33;;;;;;;7.05;6.3;;;;;;;18.51;91.49609;95031.76;;;;
2022/06/30 05:47:34;;;;;;;7.05;6.3;;;;;;;18.51;91.49609;95031.76;;;;
2022/06/30 05:48:43;;;;;;;7.05;6.3;;;;;;;18.51;91.49609;95031.76;;;;
2022/06/30 05:49:44;;;;;;;7.05;6.3;;;;;;;18.51;91.49609;95031.76;;;;
2022/06/30 05:50:45;;;;;;;7.05;6.3;;;;;;;18.51;91.49609;95031.76;;;;
2022/06/30 05:51:45;;;;;;;7.05;6.3;;;;;;;18.51;91.49609;95031.76;;;;
2022/06/30 05:52:46;;;;;;;6.55;5.9;;;;;;;18.92;91.08789;95030.67;;;;
2022/06/30 05:53:47;;;;;;;6.55;5.9;;;;;;;18.92;91.08789;95030.67;;;;
2022/06/30 05:54:48;;;;;;;6.55;5.9;;;;;;;18.92;91.08789;95030.67;;;;
2022/06/30 05:55:48;;;;;;;6.55;5.9;;;;;;;18.92;91.08789;95030.67;;;;
2022/06/30 05:56:49;;;;;;;6.55;5.9;;;;;;;18.92;91.08789;95030.67;;;;
2022/06/30 05:57:49;;;;;;;6.55;5.9;;;;;;;18.92;91.08789;95030.67;;;;
2022/06/30 05:58:51;;;;;;;6.55;5.9;;;;;;;18.92;91.08789;95030.67;;;;